sensor_id;sensor_type;location;lat;lon;timestamp;P1;durP1;ratioP1;P2;durP2;ratioP2
14738;SDS011;7461;52.440;13.540;2023-04-07T00:01:51;15.48;;;14.20;;
14738;SDS011;7461;52.440;13.540;2023-04-07T00:04:18;17.52;;;16.17;;
14738;SDS011;7461;52.440;13.540;2023-04-07T00:06:45;16.45;;;14.93;;
14738;SDS011;7461;52.440;13.540;2023-04-07T00:09:12;18.20;;;16.55;;
14738;SDS011;7461;52.440;13.540;2023-04-07T00:11:39;18.90;;;17.13;;
14738;SDS011;7461;52.440;13.540;2023-04-07T00:14:06;16.88;;;15.35;;
14738;SDS011;7461;52.440;13.540;2023-04-07T00:16:34;18.83;;;16.92;;
14738;SDS011;7461;52.440;13.540;2023-04-07T00:19:01;15.82;;;14.60;;
14738;SDS011;7461;52.440;13.540;2023-04-07T00:21:28;16.33;;;15.15;;
14738;SDS011;7461;52.440;13.540;2023-04-07T00:23:55;17.35;;;15.95;;
14738;SDS011;7461;52.440;13.540;2023-04-07T00:26:23;17.88;;;16.55;;
14738;SDS011;7461;52.440;13.540;2023-04-07T00:28:55;16.30;;;14.75;;
14738;SDS011;7461;52.440;13.540;2023-04-07T00:31:22;17.55;;;16.05;;
14738;SDS011;7461;52.440;13.540;2023-04-07T00:33:51;16.33;;;15.10;;
14738;SDS011;7461;52.440;13.540;2023-04-07T00:36:18;17.35;;;15.95;;
14738;SDS011;7461;52.440;13.540;2023-04-07T00:38:45;17.55;;;16.20;;
14738;SDS011;7461;52.440;13.540;2023-04-07T00:41:12;18.88;;;17.17;;
14738;SDS011;7461;52.440;13.540;2023-04-07T00:43:39;18.00;;;16.55;;
14738;SDS011;7461;52.440;13.540;2023-04-07T00:46:05;15.35;;;13.98;;
14738;SDS011;7461;52.440;13.540;2023-04-07T00:48:33;18.02;;;16.48;;
14738;SDS011;7461;52.440;13.540;2023-04-07T00:51:01;16.55;;;15.27;;
14738;SDS011;7461;52.440;13.540;2023-04-07T00:53:29;18.23;;;16.63;;
14738;SDS011;7461;52.440;13.540;2023-04-07T00:55:56;17.60;;;16.17;;
14738;SDS011;7461;52.440;13.540;2023-04-07T00:58:22;16.92;;;15.55;;
14738;SDS011;7461;52.440;13.540;2023-04-07T01:00:50;18.08;;;16.38;;
14738;SDS011;7461;52.440;13.540;2023-04-07T01:03:24;17.10;;;15.88;;
14738;SDS011;7461;52.440;13.540;2023-04-07T01:05:59;17.83;;;16.15;;
14738;SDS011;7461;52.440;13.540;2023-04-07T01:08:32;17.40;;;16.08;;
14738;SDS011;7461;52.440;13.540;2023-04-07T01:11:05;16.98;;;15.40;;
14738;SDS011;7461;52.440;13.540;2023-04-07T01:13:35;17.98;;;16.30;;
14738;SDS011;7461;52.440;13.540;2023-04-07T01:16:16;17.88;;;16.20;;
14738;SDS011;7461;52.440;13.540;2023-04-07T01:18:47;19.38;;;17.67;;
14738;SDS011;7461;52.440;13.540;2023-04-07T01:21:20;14.85;;;13.77;;
14738;SDS011;7461;52.440;13.540;2023-04-07T01:24:00;16.50;;;15.30;;
14738;SDS011;7461;52.440;13.540;2023-04-07T01:26:34;16.92;;;15.23;;
14738;SDS011;7461;52.440;13.540;2023-04-07T01:29:06;19.10;;;17.30;;
14738;SDS011;7461;52.440;13.540;2023-04-07T01:31:45;17.77;;;16.27;;
14738;SDS011;7461;52.440;13.540;2023-04-07T01:34:14;18.15;;;16.63;;
14738;SDS011;7461;52.440;13.540;2023-04-07T01:36:43;16.80;;;15.35;;
14738;SDS011;7461;52.440;13.540;2023-04-07T01:39:12;15.48;;;14.25;;
14738;SDS011;7461;52.440;13.540;2023-04-07T01:41:39;16.98;;;15.55;;
14738;SDS011;7461;52.440;13.540;2023-04-07T01:44:07;19.15;;;17.27;;
14738;SDS011;7461;52.440;13.540;2023-04-07T01:46:37;17.58;;;16.02;;
14738;SDS011;7461;52.440;13.540;2023-04-07T01:49:04;17.42;;;15.93;;
14738;SDS011;7461;52.440;13.540;2023-04-07T01:51:32;16.20;;;14.80;;
14738;SDS011;7461;52.440;13.540;2023-04-07T01:53:59;15.93;;;14.75;;
14738;SDS011;7461;52.440;13.540;2023-04-07T01:56:27;16.67;;;15.45;;
14738;SDS011;7461;52.440;13.540;2023-04-07T01:58:54;18.45;;;16.67;;
14738;SDS011;7461;52.440;13.540;2023-04-07T02:01:21;14.98;;;13.82;;
14738;SDS011;7461;52.440;13.540;2023-04-07T02:03:51;15.60;;;14.30;;
14738;SDS011;7461;52.440;13.540;2023-04-07T02:06:21;16.52;;;15.07;;
14738;SDS011;7461;52.440;13.540;2023-04-07T02:08:54;15.20;;;13.80;;
14738;SDS011;7461;52.440;13.540;2023-04-07T02:11:25;16.52;;;13.68;;
14738;SDS011;7461;52.440;13.540;2023-04-07T02:13:54;16.88;;;15.27;;
14738;SDS011;7461;52.440;13.540;2023-04-07T02:16:22;15.73;;;14.32;;
14738;SDS011;7461;52.440;13.540;2023-04-07T02:18:51;16.63;;;15.40;;
14738;SDS011;7461;52.440;13.540;2023-04-07T02:21:18;14.75;;;13.55;;
14738;SDS011;7461;52.440;13.540;2023-04-07T02:23:46;16.33;;;14.98;;
14738;SDS011;7461;52.440;13.540;2023-04-07T02:26:13;16.02;;;14.65;;
14738;SDS011;7461;52.440;13.540;2023-04-07T02:28:40;15.98;;;14.68;;
14738;SDS011;7461;52.440;13.540;2023-04-07T02:31:07;15.95;;;14.70;;
14738;SDS011;7461;52.440;13.540;2023-04-07T02:33:37;16.15;;;14.30;;
14738;SDS011;7461;52.440;13.540;2023-04-07T02:36:06;15.43;;;14.32;;
14738;SDS011;7461;52.440;13.540;2023-04-07T02:38:33;15.23;;;13.95;;
14738;SDS011;7461;52.440;13.540;2023-04-07T02:41:00;16.48;;;14.95;;
14738;SDS011;7461;52.440;13.540;2023-04-07T02:43:27;15.70;;;14.48;;
14738;SDS011;7461;52.440;13.540;2023-04-07T02:45:53;15.73;;;14.35;;
14738;SDS011;7461;52.440;13.540;2023-04-07T02:48:21;15.05;;;13.88;;
14738;SDS011;7461;52.440;13.540;2023-04-07T02:50:47;17.30;;;15.85;;
14738;SDS011;7461;52.440;13.540;2023-04-07T02:53:16;14.45;;;13.35;;
14738;SDS011;7461;52.440;13.540;2023-04-07T02:55:42;15.52;;;14.20;;
14738;SDS011;7461;52.440;13.540;2023-04-07T02:58:09;15.27;;;13.80;;
14738;SDS011;7461;52.440;13.540;2023-04-07T03:00:36;17.00;;;15.57;;
14738;SDS011;7461;52.440;13.540;2023-04-07T03:03:03;15.82;;;14.35;;
14738;SDS011;7461;52.440;13.540;2023-04-07T03:05:30;15.95;;;14.57;;
14738;SDS011;7461;52.440;13.540;2023-04-07T03:07:57;14.65;;;13.52;;
14738;SDS011;7461;52.440;13.540;2023-04-07T03:10:26;15.30;;;13.80;;
14738;SDS011;7461;52.440;13.540;2023-04-07T03:12:52;13.48;;;12.45;;
14738;SDS011;7461;52.440;13.540;2023-04-07T03:15:19;13.00;;;12.10;;
14738;SDS011;7461;52.440;13.540;2023-04-07T03:17:46;15.25;;;13.68;;
14738;SDS011;7461;52.440;13.540;2023-04-07T03:20:13;14.32;;;13.02;;
14738;SDS011;7461;52.440;13.540;2023-04-07T03:22:41;16.02;;;14.57;;
14738;SDS011;7461;52.440;13.540;2023-04-07T03:25:08;14.60;;;13.30;;
14738;SDS011;7461;52.440;13.540;2023-04-07T03:27:37;14.70;;;13.40;;
14738;SDS011;7461;52.440;13.540;2023-04-07T03:30:05;14.52;;;13.43;;
14738;SDS011;7461;52.440;13.540;2023-04-07T03:32:32;14.43;;;13.25;;
14738;SDS011;7461;52.440;13.540;2023-04-07T03:34:59;15.15;;;13.77;;
14738;SDS011;7461;52.440;13.540;2023-04-07T03:37:26;14.02;;;13.00;;
14738;SDS011;7461;52.440;13.540;2023-04-07T03:39:53;13.52;;;12.45;;
14738;SDS011;7461;52.440;13.540;2023-04-07T03:42:20;13.77;;;12.68;;
14738;SDS011;7461;52.440;13.540;2023-04-07T03:44:48;14.50;;;13.18;;
14738;SDS011;7461;52.440;13.540;2023-04-07T03:47:18;15.73;;;14.40;;
14738;SDS011;7461;52.440;13.540;2023-04-07T03:49:46;14.98;;;13.68;;
14738;SDS011;7461;52.440;13.540;2023-04-07T03:52:13;14.00;;;12.85;;
14738;SDS011;7461;52.440;13.540;2023-04-07T03:54:41;15.85;;;14.43;;
14738;SDS011;7461;52.440;13.540;2023-04-07T03:57:08;14.27;;;12.93;;
14738;SDS011;7461;52.440;13.540;2023-04-07T03:59:35;14.73;;;13.65;;
14738;SDS011;7461;52.440;13.540;2023-04-07T04:02:03;14.52;;;13.35;;
14738;SDS011;7461;52.440;13.540;2023-04-07T04:04:31;14.27;;;13.18;;
14738;SDS011;7461;52.440;13.540;2023-04-07T04:06:58;14.32;;;13.00;;
14738;SDS011;7461;52.440;13.540;2023-04-07T04:09:25;13.20;;;11.93;;
14738;SDS011;7461;52.440;13.540;2023-04-07T04:11:52;13.77;;;12.52;;
14738;SDS011;7461;52.440;13.540;2023-04-07T04:14:20;13.63;;;12.30;;
14738;SDS011;7461;52.440;13.540;2023-04-07T04:16:47;15.52;;;14.07;;
14738;SDS011;7461;52.440;13.540;2023-04-07T04:19:15;14.73;;;13.23;;
14738;SDS011;7461;52.440;13.540;2023-04-07T04:21:42;14.02;;;12.82;;
14738;SDS011;7461;52.440;13.540;2023-04-07T04:24:10;14.55;;;13.05;;
14738;SDS011;7461;52.440;13.540;2023-04-07T04:26:37;13.52;;;12.52;;
14738;SDS011;7461;52.440;13.540;2023-04-07T04:29:03;15.15;;;13.95;;
14738;SDS011;7461;52.440;13.540;2023-04-07T04:31:30;14.50;;;13.27;;
14738;SDS011;7461;52.440;13.540;2023-04-07T04:33:57;15.05;;;13.65;;
14738;SDS011;7461;52.440;13.540;2023-04-07T04:36:26;14.52;;;13.27;;
14738;SDS011;7461;52.440;13.540;2023-04-07T04:38:53;14.45;;;13.27;;
14738;SDS011;7461;52.440;13.540;2023-04-07T04:41:20;13.20;;;12.20;;
14738;SDS011;7461;52.440;13.540;2023-04-07T04:43:47;14.00;;;12.90;;
14738;SDS011;7461;52.440;13.540;2023-04-07T04:46:14;15.57;;;14.05;;
14738;SDS011;7461;52.440;13.540;2023-04-07T04:48:41;13.43;;;12.52;;
14738;SDS011;7461;52.440;13.540;2023-04-07T04:51:08;15.02;;;13.52;;
14738;SDS011;7461;52.440;13.540;2023-04-07T04:53:37;14.80;;;13.48;;
14738;SDS011;7461;52.440;13.540;2023-04-07T04:56:04;12.38;;;11.27;;
14738;SDS011;7461;52.440;13.540;2023-04-07T04:58:31;15.23;;;13.77;;
14738;SDS011;7461;52.440;13.540;2023-04-07T05:00:59;14.75;;;13.40;;
14738;SDS011;7461;52.440;13.540;2023-04-07T05:03:26;15.20;;;13.98;;
14738;SDS011;7461;52.440;13.540;2023-04-07T05:05:54;14.23;;;12.98;;
14738;SDS011;7461;52.440;13.540;2023-04-07T05:08:21;13.48;;;12.38;;
14738;SDS011;7461;52.440;13.540;2023-04-07T05:10:49;13.40;;;12.35;;
14738;SDS011;7461;52.440;13.540;2023-04-07T05:13:16;14.38;;;13.18;;
14738;SDS011;7461;52.440;13.540;2023-04-07T05:15:43;14.20;;;12.95;;
14738;SDS011;7461;52.440;13.540;2023-04-07T05:18:10;14.25;;;13.15;;
14738;SDS011;7461;52.440;13.540;2023-04-07T05:20:37;13.35;;;12.25;;
14738;SDS011;7461;52.440;13.540;2023-04-07T05:23:04;13.77;;;12.57;;
14738;SDS011;7461;52.440;13.540;2023-04-07T05:25:31;13.75;;;12.65;;
14738;SDS011;7461;52.440;13.540;2023-04-07T05:27:59;12.57;;;11.57;;
14738;SDS011;7461;52.440;13.540;2023-04-07T05:30:26;14.68;;;13.63;;
14738;SDS011;7461;52.440;13.540;2023-04-07T05:32:53;12.48;;;11.55;;
14738;SDS011;7461;52.440;13.540;2023-04-07T05:35:20;14.73;;;13.55;;
14738;SDS011;7461;52.440;13.540;2023-04-07T05:37:48;15.50;;;13.98;;
14738;SDS011;7461;52.440;13.540;2023-04-07T05:40:15;16.05;;;14.70;;
14738;SDS011;7461;52.440;13.540;2023-04-07T05:42:42;15.07;;;13.90;;
14738;SDS011;7461;52.440;13.540;2023-04-07T05:45:10;14.93;;;13.63;;
14738;SDS011;7461;52.440;13.540;2023-04-07T05:47:40;15.68;;;14.13;;
14738;SDS011;7461;52.440;13.540;2023-04-07T05:50:07;14.75;;;13.30;;
14738;SDS011;7461;52.440;13.540;2023-04-07T05:52:36;14.38;;;13.27;;
14738;SDS011;7461;52.440;13.540;2023-04-07T05:55:03;13.02;;;12.02;;
14738;SDS011;7461;52.440;13.540;2023-04-07T05:57:31;13.50;;;12.45;;
14738;SDS011;7461;52.440;13.540;2023-04-07T05:59:58;12.40;;;11.50;;
14738;SDS011;7461;52.440;13.540;2023-04-07T06:02:27;14.95;;;13.52;;
14738;SDS011;7461;52.440;13.540;2023-04-07T06:04:54;13.93;;;12.77;;
14738;SDS011;7461;52.440;13.540;2023-04-07T06:07:21;15.85;;;14.55;;
14738;SDS011;7461;52.440;13.540;2023-04-07T06:09:48;13.52;;;12.15;;
14738;SDS011;7461;52.440;13.540;2023-04-07T06:12:15;13.30;;;12.10;;
14738;SDS011;7461;52.440;13.540;2023-04-07T06:14:42;16.27;;;14.88;;
14738;SDS011;7461;52.440;13.540;2023-04-07T06:17:09;14.93;;;13.73;;
14738;SDS011;7461;52.440;13.540;2023-04-07T06:19:37;14.98;;;13.75;;
14738;SDS011;7461;52.440;13.540;2023-04-07T06:22:04;13.95;;;12.65;;
14738;SDS011;7461;52.440;13.540;2023-04-07T06:24:31;13.07;;;12.02;;
14738;SDS011;7461;52.440;13.540;2023-04-07T06:26:59;14.02;;;12.73;;
14738;SDS011;7461;52.440;13.540;2023-04-07T06:29:26;15.13;;;13.63;;
14738;SDS011;7461;52.440;13.540;2023-04-07T06:31:53;14.02;;;12.85;;
14738;SDS011;7461;52.440;13.540;2023-04-07T06:34:20;14.70;;;13.50;;
14738;SDS011;7461;52.440;13.540;2023-04-07T06:36:49;16.02;;;14.60;;
14738;SDS011;7461;52.440;13.540;2023-04-07T06:39:16;14.13;;;12.77;;
14738;SDS011;7461;52.440;13.540;2023-04-07T06:41:43;15.25;;;13.73;;
14738;SDS011;7461;52.440;13.540;2023-04-07T06:44:11;15.77;;;14.50;;
14738;SDS011;7461;52.440;13.540;2023-04-07T06:46:38;15.10;;;13.80;;
14738;SDS011;7461;52.440;13.540;2023-04-07T06:49:06;14.60;;;13.40;;
14738;SDS011;7461;52.440;13.540;2023-04-07T06:51:33;15.68;;;14.38;;
14738;SDS011;7461;52.440;13.540;2023-04-07T06:54:01;16.00;;;14.65;;
14738;SDS011;7461;52.440;13.540;2023-04-07T06:56:29;16.33;;;14.82;;
14738;SDS011;7461;52.440;13.540;2023-04-07T06:58:56;17.42;;;15.75;;
14738;SDS011;7461;52.440;13.540;2023-04-07T07:01:23;17.50;;;15.77;;
14738;SDS011;7461;52.440;13.540;2023-04-07T07:03:50;15.52;;;14.23;;
14738;SDS011;7461;52.440;13.540;2023-04-07T07:06:17;13.93;;;12.70;;
14738;SDS011;7461;52.440;13.540;2023-04-07T07:08:44;16.38;;;14.93;;
14738;SDS011;7461;52.440;13.540;2023-04-07T07:11:12;15.10;;;13.88;;
14738;SDS011;7461;52.440;13.540;2023-04-07T07:13:39;16.75;;;15.27;;
14738;SDS011;7461;52.440;13.540;2023-04-07T07:16:06;15.85;;;14.55;;
14738;SDS011;7461;52.440;13.540;2023-04-07T07:18:33;15.30;;;13.93;;
14738;SDS011;7461;52.440;13.540;2023-04-07T07:21:01;14.13;;;13.15;;
14738;SDS011;7461;52.440;13.540;2023-04-07T07:23:28;16.23;;;14.68;;
14738;SDS011;7461;52.440;13.540;2023-04-07T07:25:55;16.10;;;14.70;;
14738;SDS011;7461;52.440;13.540;2023-04-07T07:28:23;14.00;;;12.70;;
14738;SDS011;7461;52.440;13.540;2023-04-07T07:30:50;14.18;;;13.15;;
14738;SDS011;7461;52.440;13.540;2023-04-07T07:33:17;13.63;;;12.55;;
14738;SDS011;7461;52.440;13.540;2023-04-07T07:35:46;14.43;;;13.10;;
14738;SDS011;7461;52.440;13.540;2023-04-07T07:38:13;15.68;;;13.18;;
14738;SDS011;7461;52.440;13.540;2023-04-07T07:40:40;14.88;;;13.77;;
14738;SDS011;7461;52.440;13.540;2023-04-07T07:43:07;15.05;;;13.73;;
14738;SDS011;7461;52.440;13.540;2023-04-07T07:45:36;15.50;;;14.30;;
14738;SDS011;7461;52.440;13.540;2023-04-07T07:48:03;15.45;;;13.32;;
14738;SDS011;7461;52.440;13.540;2023-04-07T07:50:30;13.75;;;12.65;;
14738;SDS011;7461;52.440;13.540;2023-04-07T07:52:57;14.00;;;12.80;;
14738;SDS011;7461;52.440;13.540;2023-04-07T07:55:24;14.27;;;13.18;;
14738;SDS011;7461;52.440;13.540;2023-04-07T07:57:51;12.43;;;11.32;;
14738;SDS011;7461;52.440;13.540;2023-04-07T08:00:18;12.73;;;11.75;;
14738;SDS011;7461;52.440;13.540;2023-04-07T08:02:47;12.73;;;11.82;;
14738;SDS011;7461;52.440;13.540;2023-04-07T08:05:13;14.38;;;12.43;;
14738;SDS011;7461;52.440;13.540;2023-04-07T08:07:41;12.75;;;11.50;;
14738;SDS011;7461;52.440;13.540;2023-04-07T08:10:08;11.73;;;10.73;;
14738;SDS011;7461;52.440;13.540;2023-04-07T08:12:35;12.20;;;11.13;;
14738;SDS011;7461;52.440;13.540;2023-04-07T08:15:02;12.18;;;11.18;;
14738;SDS011;7461;52.440;13.540;2023-04-07T08:17:30;10.70;;;9.90;;
14738;SDS011;7461;52.440;13.540;2023-04-07T08:19:59;12.52;;;11.48;;
14738;SDS011;7461;52.440;13.540;2023-04-07T08:22:26;10.50;;;9.52;;
14738;SDS011;7461;52.440;13.540;2023-04-07T08:24:53;11.15;;;10.15;;
14738;SDS011;7461;52.440;13.540;2023-04-07T08:27:20;12.00;;;10.77;;
14738;SDS011;7461;52.440;13.540;2023-04-07T08:29:50;10.80;;;10.05;;
14738;SDS011;7461;52.440;13.540;2023-04-07T08:32:25;10.40;;;9.52;;
14738;SDS011;7461;52.440;13.540;2023-04-07T08:35:00;10.02;;;9.13;;
14738;SDS011;7461;52.440;13.540;2023-04-07T08:37:27;7.82;;;7.22;;
14738;SDS011;7461;52.440;13.540;2023-04-07T08:39:54;9.85;;;9.05;;
14738;SDS011;7461;52.440;13.540;2023-04-07T08:42:21;8.27;;;7.68;;
14738;SDS011;7461;52.440;13.540;2023-04-07T08:44:52;9.73;;;8.93;;
14738;SDS011;7461;52.440;13.540;2023-04-07T08:47:22;9.55;;;8.75;;
14738;SDS011;7461;52.440;13.540;2023-04-07T08:49:51;10.32;;;9.38;;
14738;SDS011;7461;52.440;13.540;2023-04-07T08:52:23;9.38;;;8.30;;
14738;SDS011;7461;52.440;13.540;2023-04-07T08:54:58;8.40;;;7.70;;
14738;SDS011;7461;52.440;13.540;2023-04-07T08:57:26;9.77;;;9.02;;
14738;SDS011;7461;52.440;13.540;2023-04-07T08:59:55;10.40;;;9.60;;
14738;SDS011;7461;52.440;13.540;2023-04-07T09:02:26;10.65;;;9.77;;
14738;SDS011;7461;52.440;13.540;2023-04-07T09:04:54;9.70;;;8.85;;
14738;SDS011;7461;52.440;13.540;2023-04-07T09:07:21;12.05;;;11.15;;
14738;SDS011;7461;52.440;13.540;2023-04-07T09:09:49;10.68;;;9.73;;
14738;SDS011;7461;52.440;13.540;2023-04-07T09:12:16;10.68;;;9.68;;
14738;SDS011;7461;52.440;13.540;2023-04-07T09:14:43;10.38;;;9.57;;
14738;SDS011;7461;52.440;13.540;2023-04-07T09:17:10;11.30;;;10.38;;
14738;SDS011;7461;52.440;13.540;2023-04-07T09:19:37;9.93;;;8.68;;
14738;SDS011;7461;52.440;13.540;2023-04-07T09:22:05;8.95;;;8.13;;
14738;SDS011;7461;52.440;13.540;2023-04-07T09:24:32;8.75;;;8.05;;
14738;SDS011;7461;52.440;13.540;2023-04-07T09:27:10;9.05;;;8.25;;
14738;SDS011;7461;52.440;13.540;2023-04-07T09:29:39;8.57;;;7.88;;
14738;SDS011;7461;52.440;13.540;2023-04-07T09:32:07;9.77;;;7.13;;
14738;SDS011;7461;52.440;13.540;2023-04-07T09:34:35;7.15;;;6.55;;
14738;SDS011;7461;52.440;13.540;2023-04-07T09:37:03;8.27;;;7.50;;
14738;SDS011;7461;52.440;13.540;2023-04-07T09:39:32;6.70;;;6.20;;
14738;SDS011;7461;52.440;13.540;2023-04-07T09:41:59;8.02;;;7.32;;
14738;SDS011;7461;52.440;13.540;2023-04-07T09:44:38;8.30;;;7.60;;
14738;SDS011;7461;52.440;13.540;2023-04-07T09:47:06;7.93;;;7.18;;
14738;SDS011;7461;52.440;13.540;2023-04-07T09:49:34;7.18;;;6.20;;
14738;SDS011;7461;52.440;13.540;2023-04-07T09:52:15;7.03;;;6.53;;
14738;SDS011;7461;52.440;13.540;2023-04-07T09:54:44;6.80;;;6.25;;
14738;SDS011;7461;52.440;13.540;2023-04-07T09:57:12;6.25;;;5.75;;
14738;SDS011;7461;52.440;13.540;2023-04-07T09:59:43;6.45;;;5.85;;
14738;SDS011;7461;52.440;13.540;2023-04-07T10:02:11;5.60;;;5.13;;
14738;SDS011;7461;52.440;13.540;2023-04-07T10:04:38;6.35;;;5.85;;
14738;SDS011;7461;52.440;13.540;2023-04-07T10:07:06;6.82;;;6.25;;
14738;SDS011;7461;52.440;13.540;2023-04-07T10:09:33;8.82;;;6.65;;
14738;SDS011;7461;52.440;13.540;2023-04-07T10:12:00;6.03;;;5.53;;
14738;SDS011;7461;52.440;13.540;2023-04-07T10:14:29;8.35;;;7.40;;
14738;SDS011;7461;52.440;13.540;2023-04-07T10:16:59;5.80;;;5.30;;
14738;SDS011;7461;52.440;13.540;2023-04-07T10:19:28;10.48;;;6.95;;
14738;SDS011;7461;52.440;13.540;2023-04-07T10:21:57;6.93;;;6.22;;
14738;SDS011;7461;52.440;13.540;2023-04-07T10:24:36;6.07;;;5.63;;
14738;SDS011;7461;52.440;13.540;2023-04-07T10:27:13;5.15;;;4.65;;
14738;SDS011;7461;52.440;13.540;2023-04-07T10:29:44;5.95;;;5.43;;
14738;SDS011;7461;52.440;13.540;2023-04-07T10:32:15;5.47;;;4.97;;
14738;SDS011;7461;52.440;13.540;2023-04-07T10:34:55;6.05;;;5.55;;
14738;SDS011;7461;52.440;13.540;2023-04-07T10:37:23;5.78;;;5.28;;
14738;SDS011;7461;52.440;13.540;2023-04-07T10:42:52;8.23;;;5.75;;
14738;SDS011;7461;52.440;13.540;2023-04-07T10:45:50;6.47;;;5.88;;
14738;SDS011;7461;52.440;13.540;2023-04-07T10:48:21;6.20;;;5.80;;
14738;SDS011;7461;52.440;13.540;2023-04-07T10:59:38;7.80;;;7.10;;
14738;SDS011;7461;52.440;13.540;2023-04-07T11:05:01;5.72;;;5.30;;
14738;SDS011;7461;52.440;13.540;2023-04-07T11:07:47;7.97;;;7.38;;
14738;SDS011;7461;52.440;13.540;2023-04-07T11:10:16;7.90;;;7.30;;
14738;SDS011;7461;52.440;13.540;2023-04-07T11:12:58;6.30;;;5.70;;
14738;SDS011;7461;52.440;13.540;2023-04-07T11:15:30;6.28;;;5.78;;
14738;SDS011;7461;52.440;13.540;2023-04-07T11:18:11;6.22;;;5.72;;
14738;SDS011;7461;52.440;13.540;2023-04-07T11:20:45;7.05;;;6.32;;
14738;SDS011;7461;52.440;13.540;2023-04-07T11:23:14;7.22;;;6.63;;
14738;SDS011;7461;52.440;13.540;2023-04-07T11:25:42;9.43;;;7.68;;
14738;SDS011;7461;52.440;13.540;2023-04-07T11:28:10;10.20;;;9.35;;
14738;SDS011;7461;52.440;13.540;2023-04-07T11:30:42;10.02;;;8.90;;
14738;SDS011;7461;52.440;13.540;2023-04-07T11:33:13;10.30;;;9.35;;
14738;SDS011;7461;52.440;13.540;2023-04-07T11:35:47;9.27;;;8.38;;
14738;SDS011;7461;52.440;13.540;2023-04-07T11:38:15;9.55;;;8.80;;
14738;SDS011;7461;52.440;13.540;2023-04-07T11:40:43;9.50;;;8.70;;
14738;SDS011;7461;52.440;13.540;2023-04-07T11:43:16;12.63;;;11.73;;
14738;SDS011;7461;52.440;13.540;2023-04-07T11:45:45;15.75;;;14.55;;
14738;SDS011;7461;52.440;13.540;2023-04-07T11:48:25;18.65;;;17.13;;
14738;SDS011;7461;52.440;13.540;2023-04-07T11:50:54;19.63;;;18.17;;
14738;SDS011;7461;52.440;13.540;2023-04-07T11:53:24;23.65;;;21.85;;
14738;SDS011;7461;52.440;13.540;2023-04-07T11:56:02;25.38;;;23.60;;
14738;SDS011;7461;52.440;13.540;2023-04-07T11:58:31;31.45;;;29.00;;
14738;SDS011;7461;52.440;13.540;2023-04-07T12:00:58;34.13;;;31.38;;
14738;SDS011;7461;52.440;13.540;2023-04-07T12:03:30;36.22;;;33.53;;
14738;SDS011;7461;52.440;13.540;2023-04-07T12:05:59;38.05;;;35.17;;
14738;SDS011;7461;52.440;13.540;2023-04-07T12:08:36;41.83;;;38.45;;
14738;SDS011;7461;52.440;13.540;2023-04-07T12:11:05;40.03;;;36.83;;
14738;SDS011;7461;52.440;13.540;2023-04-07T12:13:33;39.22;;;36.22;;
14738;SDS011;7461;52.440;13.540;2023-04-07T12:16:00;39.20;;;36.00;;
14738;SDS011;7461;52.440;13.540;2023-04-07T12:18:27;44.20;;;40.78;;
14738;SDS011;7461;52.440;13.540;2023-04-07T12:20:54;37.65;;;34.80;;
14738;SDS011;7461;52.440;13.540;2023-04-07T12:23:24;36.95;;;33.97;;
14738;SDS011;7461;52.440;13.540;2023-04-07T12:25:51;32.72;;;30.17;;
14738;SDS011;7461;52.440;13.540;2023-04-07T12:28:18;28.75;;;26.33;;
14738;SDS011;7461;52.440;13.540;2023-04-07T12:30:45;30.33;;;27.92;;
14738;SDS011;7461;52.440;13.540;2023-04-07T12:33:13;27.70;;;25.50;;
14738;SDS011;7461;52.440;13.540;2023-04-07T12:35:40;28.35;;;26.00;;
14738;SDS011;7461;52.440;13.540;2023-04-07T12:38:06;27.63;;;25.42;;
14738;SDS011;7461;52.440;13.540;2023-04-07T12:40:35;25.40;;;23.48;;
14738;SDS011;7461;52.440;13.540;2023-04-07T12:43:02;25.20;;;23.23;;
14738;SDS011;7461;52.440;13.540;2023-04-07T12:45:29;24.10;;;21.83;;
14738;SDS011;7461;52.440;13.540;2023-04-07T12:47:57;25.13;;;23.13;;
14738;SDS011;7461;52.440;13.540;2023-04-07T12:50:24;27.38;;;25.27;;
14738;SDS011;7461;52.440;13.540;2023-04-07T12:52:51;28.40;;;25.88;;
14738;SDS011;7461;52.440;13.540;2023-04-07T12:55:19;26.95;;;24.63;;
14738;SDS011;7461;52.440;13.540;2023-04-07T12:57:47;32.72;;;29.55;;
14738;SDS011;7461;52.440;13.540;2023-04-07T13:00:14;30.55;;;27.77;;
14738;SDS011;7461;52.440;13.540;2023-04-07T13:02:42;32.25;;;29.15;;
14738;SDS011;7461;52.440;13.540;2023-04-07T13:05:09;34.22;;;31.33;;
14738;SDS011;7461;52.440;13.540;2023-04-07T13:07:36;35.85;;;32.40;;
14738;SDS011;7461;52.440;13.540;2023-04-07T13:10:04;34.58;;;31.58;;
14738;SDS011;7461;52.440;13.540;2023-04-07T13:12:33;35.10;;;31.85;;
14738;SDS011;7461;52.440;13.540;2023-04-07T13:15:02;34.08;;;31.25;;
14738;SDS011;7461;52.440;13.540;2023-04-07T13:17:29;41.67;;;37.45;;
14738;SDS011;7461;52.440;13.540;2023-04-07T13:19:56;42.53;;;38.67;;
14738;SDS011;7461;52.440;13.540;2023-04-07T13:22:23;31.73;;;28.92;;
14738;SDS011;7461;52.440;13.540;2023-04-07T13:24:51;25.02;;;22.63;;
14738;SDS011;7461;52.440;13.540;2023-04-07T13:27:18;21.23;;;19.38;;
14738;SDS011;7461;52.440;13.540;2023-04-07T13:29:45;18.83;;;17.15;;
14738;SDS011;7461;52.440;13.540;2023-04-07T13:32:15;17.67;;;16.05;;
14738;SDS011;7461;52.440;13.540;2023-04-07T13:34:42;18.60;;;16.88;;
14738;SDS011;7461;52.440;13.540;2023-04-07T13:37:09;15.95;;;14.45;;
14738;SDS011;7461;52.440;13.540;2023-04-07T13:39:36;28.05;;;25.08;;
14738;SDS011;7461;52.440;13.540;2023-04-07T13:42:04;17.42;;;15.98;;
14738;SDS011;7461;52.440;13.540;2023-04-07T13:44:33;14.98;;;13.73;;
14738;SDS011;7461;52.440;13.540;2023-04-07T13:47:01;20.20;;;18.65;;
14738;SDS011;7461;52.440;13.540;2023-04-07T13:49:30;17.65;;;16.38;;
14738;SDS011;7461;52.440;13.540;2023-04-07T13:51:57;14.43;;;13.32;;
14738;SDS011;7461;52.440;13.540;2023-04-07T13:54:24;13.20;;;12.05;;
14738;SDS011;7461;52.440;13.540;2023-04-07T13:56:51;13.95;;;12.70;;
14738;SDS011;7461;52.440;13.540;2023-04-07T13:59:18;12.02;;;10.90;;
14738;SDS011;7461;52.440;13.540;2023-04-07T14:01:45;10.70;;;9.90;;
14738;SDS011;7461;52.440;13.540;2023-04-07T14:04:12;11.07;;;10.27;;
14738;SDS011;7461;52.440;13.540;2023-04-07T14:06:41;9.88;;;9.18;;
14738;SDS011;7461;52.440;13.540;2023-04-07T14:09:08;10.50;;;9.63;;
14738;SDS011;7461;52.440;13.540;2023-04-07T14:11:35;12.05;;;11.25;;
14738;SDS011;7461;52.440;13.540;2023-04-07T14:14:02;12.77;;;11.70;;
14738;SDS011;7461;52.440;13.540;2023-04-07T14:16:29;11.40;;;10.40;;
14738;SDS011;7461;52.440;13.540;2023-04-07T14:18:56;13.55;;;12.43;;
14738;SDS011;7461;52.440;13.540;2023-04-07T14:21:23;14.63;;;13.52;;
14738;SDS011;7461;52.440;13.540;2023-04-07T14:23:52;10.13;;;9.32;;
14738;SDS011;7461;52.440;13.540;2023-04-07T14:26:20;17.60;;;15.90;;
14738;SDS011;7461;52.440;13.540;2023-04-07T14:28:46;14.82;;;13.73;;
14738;SDS011;7461;52.440;13.540;2023-04-07T14:31:14;12.27;;;11.48;;
14738;SDS011;7461;52.440;13.540;2023-04-07T14:33:41;11.95;;;11.15;;
14738;SDS011;7461;52.440;13.540;2023-04-07T14:36:09;16.17;;;15.00;;
14738;SDS011;7461;52.440;13.540;2023-04-07T14:38:37;14.35;;;13.25;;
14738;SDS011;7461;52.440;13.540;2023-04-07T14:41:05;15.95;;;14.85;;
14738;SDS011;7461;52.440;13.540;2023-04-07T14:43:32;40.83;;;37.78;;
14738;SDS011;7461;52.440;13.540;2023-04-07T14:45:59;17.50;;;16.23;;
14738;SDS011;7461;52.440;13.540;2023-04-07T14:48:26;17.13;;;16.02;;